sensor_id;sensor_type;location;lat;lon;timestamp;pressure;altitude;pressure_sealevel;temperature;humidity
13705;BME280;6924;52.122;9.952;2023-05-29T00:01:58;101069.06;;;15.06;75.73
13705;BME280;6924;52.122;9.952;2023-05-29T00:04:24;101070.53;;;15.03;76.05
13705;BME280;6924;52.122;9.952;2023-05-29T00:06:50;101072.72;;;14.98;76.67
13705;BME280;6924;52.122;9.952;2023-05-29T00:09:17;101063.69;;;14.96;76.93
13705;BME280;6924;52.122;9.952;2023-05-29T00:11:43;101059.63;;;14.88;77.58
13705;BME280;6924;52.122;9.952;2023-05-29T00:14:17;101061.47;;;14.75;78.55
13705;BME280;6924;52.122;9.952;2023-05-29T00:16:44;101060.78;;;14.70;79.39
13705;BME280;6924;52.122;9.952;2023-05-29T00:19:12;101065.69;;;14.46;81.60
13705;BME280;6924;52.122;9.952;2023-05-29T00:21:38;101072.00;;;14.35;82.37
13705;BME280;6924;52.122;9.952;2023-05-29T00:24:05;101072.34;;;14.33;82.75
13705;BME280;6924;52.122;9.952;2023-05-29T00:26:31;101072.63;;;14.23;83.78
13705;BME280;6924;52.122;9.952;2023-05-29T00:28:58;101071.59;;;14.19;84.25
13705;BME280;6924;52.122;9.952;2023-05-29T00:31:25;101081.72;;;14.02;85.66
13705;BME280;6924;52.122;9.952;2023-05-29T00:33:53;101073.47;;;13.92;86.39
13705;BME280;6924;52.122;9.952;2023-05-29T00:36:19;101077.94;;;13.84;87.05
13705;BME280;6924;52.122;9.952;2023-05-29T00:38:46;101087.19;;;13.68;88.70
13705;BME280;6924;52.122;9.952;2023-05-29T00:41:14;101084.88;;;13.47;90.04
13705;BME280;6924;52.122;9.952;2023-05-29T00:43:41;101080.56;;;13.36;90.99
13705;BME280;6924;52.122;9.952;2023-05-29T00:46:07;101080.13;;;13.42;91.04
13705;BME280;6924;52.122;9.952;2023-05-29T00:48:36;101089.75;;;13.33;91.10
13705;BME280;6924;52.122;9.952;2023-05-29T00:51:02;101088.41;;;13.16;92.47
13705;BME280;6924;52.122;9.952;2023-05-29T00:53:29;101092.38;;;13.15;92.83
13705;BME280;6924;52.122;9.952;2023-05-29T00:55:57;101096.06;;;13.16;92.62
13705;BME280;6924;52.122;9.952;2023-05-29T00:58:24;101090.06;;;13.17;92.41
13705;BME280;6924;52.122;9.952;2023-05-29T01:00:51;101098.69;;;13.26;91.74
13705;BME280;6924;52.122;9.952;2023-05-29T01:03:18;101090.78;;;13.37;91.06
13705;BME280;6924;52.122;9.952;2023-05-29T01:05:46;101103.06;;;13.46;90.28
13705;BME280;6924;52.122;9.952;2023-05-29T01:08:12;101102.47;;;13.58;89.40
13705;BME280;6924;52.122;9.952;2023-05-29T01:10:39;101107.59;;;13.47;89.46
13705;BME280;6924;52.122;9.952;2023-05-29T01:13:12;101105.16;;;13.54;88.87
13705;BME280;6924;52.122;9.952;2023-05-29T01:15:46;101111.38;;;13.42;89.22
13705;BME280;6924;52.122;9.952;2023-05-29T01:18:22;101110.22;;;13.43;88.65
13705;BME280;6924;52.122;9.952;2023-05-29T01:20:56;101098.16;;;13.24;89.23
13705;BME280;6924;52.122;9.952;2023-05-29T01:23:56;101106.91;;;13.14;90.20
13705;BME280;6924;52.122;9.952;2023-05-29T01:26:51;101114.50;;;13.18;89.71
13705;BME280;6924;52.122;9.952;2023-05-29T01:29:23;101111.03;;;13.08;89.98
13705;BME280;6924;52.122;9.952;2023-05-29T01:31:51;101111.56;;;13.10;90.18
13705;BME280;6924;52.122;9.952;2023-05-29T01:34:18;101113.66;;;13.04;90.25
13705;BME280;6924;52.122;9.952;2023-05-29T01:36:44;101113.88;;;12.94;90.65
13705;BME280;6924;52.122;9.952;2023-05-29T01:39:12;101127.56;;;13.06;90.46
13705;BME280;6924;52.122;9.952;2023-05-29T01:41:39;101125.34;;;13.16;89.95
13705;BME280;6924;52.122;9.952;2023-05-29T01:44:08;101136.44;;;13.27;89.80
13705;BME280;6924;52.122;9.952;2023-05-29T01:46:36;101137.06;;;13.37;88.90
13705;BME280;6924;52.122;9.952;2023-05-29T01:49:04;101136.13;;;13.42;88.44
13705;BME280;6924;52.122;9.952;2023-05-29T01:51:31;101141.50;;;13.43;88.10
13705;BME280;6924;52.122;9.952;2023-05-29T01:53:58;101137.69;;;13.48;87.33
13705;BME280;6924;52.122;9.952;2023-05-29T01:56:25;101143.88;;;13.50;87.04
13705;BME280;6924;52.122;9.952;2023-05-29T01:58:53;101142.41;;;13.53;86.85
13705;BME280;6924;52.122;9.952;2023-05-29T02:01:22;101148.53;;;13.46;87.06
13705;BME280;6924;52.122;9.952;2023-05-29T02:03:49;101140.66;;;13.43;86.56
13705;BME280;6924;52.122;9.952;2023-05-29T02:06:16;101144.97;;;13.40;86.06
13705;BME280;6924;52.122;9.952;2023-05-29T02:08:43;101146.78;;;13.36;86.16
13705;BME280;6924;52.122;9.952;2023-05-29T02:11:09;101144.03;;;13.31;86.29
13705;BME280;6924;52.122;9.952;2023-05-29T02:13:37;101142.47;;;13.25;86.21
13705;BME280;6924;52.122;9.952;2023-05-29T02:16:04;101137.53;;;13.17;86.33
13705;BME280;6924;52.122;9.952;2023-05-29T02:18:32;101138.47;;;13.12;86.00
13705;BME280;6924;52.122;9.952;2023-05-29T02:20:59;101145.13;;;13.08;85.83
13705;BME280;6924;52.122;9.952;2023-05-29T02:23:26;101143.53;;;13.01;86.15
13705;BME280;6924;52.122;9.952;2023-05-29T02:25:52;101141.84;;;13.00;85.90
13705;BME280;6924;52.122;9.952;2023-05-29T02:28:18;101151.66;;;12.94;86.50
13705;BME280;6924;52.122;9.952;2023-05-29T02:30:45;101154.59;;;12.89;86.05
13705;BME280;6924;52.122;9.952;2023-05-29T02:33:11;101160.59;;;12.88;86.11
13705;BME280;6924;52.122;9.952;2023-05-29T02:35:39;101160.16;;;12.80;86.09
13705;BME280;6924;52.122;9.952;2023-05-29T02:38:05;101166.06;;;12.70;86.62
13705;BME280;6924;52.122;9.952;2023-05-29T02:40:32;101170.56;;;12.57;87.00
13705;BME280;6924;52.122;9.952;2023-05-29T02:42:58;101171.59;;;12.48;87.63
13705;BME280;6924;52.122;9.952;2023-05-29T02:45:25;101174.66;;;12.37;87.93
13705;BME280;6924;52.122;9.952;2023-05-29T02:47:51;101173.22;;;12.21;88.33
13705;BME280;6924;52.122;9.952;2023-05-29T02:50:18;101181.31;;;12.14;88.89
13705;BME280;6924;52.122;9.952;2023-05-29T02:52:46;101175.41;;;12.10;89.37
13705;BME280;6924;52.122;9.952;2023-05-29T02:55:12;101185.69;;;12.06;89.61
13705;BME280;6924;52.122;9.952;2023-05-29T02:57:38;101183.81;;;12.02;89.30
13705;BME280;6924;52.122;9.952;2023-05-29T03:00:07;101181.47;;;12.04;89.61
13705;BME280;6924;52.122;9.952;2023-05-29T03:02:34;101183.97;;;11.91;89.90
13705;BME280;6924;52.122;9.952;2023-05-29T03:05:00;101184.09;;;11.81;90.10
13705;BME280;6924;52.122;9.952;2023-05-29T03:07:27;101173.97;;;11.75;90.41
13705;BME280;6924;52.122;9.952;2023-05-29T03:09:55;101182.41;;;11.80;90.27
13705;BME280;6924;52.122;9.952;2023-05-29T03:12:21;101189.00;;;11.75;90.62
13705;BME280;6924;52.122;9.952;2023-05-29T03:14:48;101188.16;;;11.75;90.12
13705;BME280;6924;52.122;9.952;2023-05-29T03:17:14;101188.78;;;11.91;90.12
13705;BME280;6924;52.122;9.952;2023-05-29T03:19:41;101193.19;;;11.97;90.05
13705;BME280;6924;52.122;9.952;2023-05-29T03:22:07;101186.53;;;12.07;89.73
13705;BME280;6924;52.122;9.952;2023-05-29T03:24:34;101191.50;;;12.15;89.28
13705;BME280;6924;52.122;9.952;2023-05-29T03:27:02;101185.44;;;12.22;88.69
13705;BME280;6924;52.122;9.952;2023-05-29T03:29:30;101188.69;;;12.29;88.55
13705;BME280;6924;52.122;9.952;2023-05-29T03:31:56;101189.44;;;12.34;88.11
13705;BME280;6924;52.122;9.952;2023-05-29T03:34:23;101190.50;;;12.38;87.61
13705;BME280;6924;52.122;9.952;2023-05-29T03:36:49;101191.13;;;12.35;87.48
13705;BME280;6924;52.122;9.952;2023-05-29T03:39:15;101192.50;;;12.38;87.62
13705;BME280;6924;52.122;9.952;2023-05-29T03:41:42;101186.00;;;12.37;86.94
13705;BME280;6924;52.122;9.952;2023-05-29T03:44:10;101190.81;;;12.37;87.25
13705;BME280;6924;52.122;9.952;2023-05-29T03:46:36;101190.50;;;12.38;86.86
13705;BME280;6924;52.122;9.952;2023-05-29T03:49:02;101186.19;;;12.41;86.92
13705;BME280;6924;52.122;9.952;2023-05-29T03:51:29;101182.09;;;12.33;87.10
13705;BME280;6924;52.122;9.952;2023-05-29T03:53:56;101184.69;;;12.30;86.43
13705;BME280;6924;52.122;9.952;2023-05-29T03:56:22;101190.16;;;12.26;85.64
13705;BME280;6924;52.122;9.952;2023-05-29T03:58:49;101192.25;;;12.20;85.45
13705;BME280;6924;52.122;9.952;2023-05-29T04:01:17;101192.75;;;12.09;85.79
13705;BME280;6924;52.122;9.952;2023-05-29T04:03:43;101206.63;;;11.91;86.41
13705;BME280;6924;52.122;9.952;2023-05-29T04:06:10;101204.75;;;11.82;86.98
13705;BME280;6924;52.122;9.952;2023-05-29T04:08:36;101219.16;;;11.85;86.80
13705;BME280;6924;52.122;9.952;2023-05-29T04:11:03;101214.44;;;11.81;87.52
13705;BME280;6924;52.122;9.952;2023-05-29T04:13:30;101219.09;;;11.71;87.42
13705;BME280;6924;52.122;9.952;2023-05-29T04:15:56;101218.72;;;11.78;88.29
13705;BME280;6924;52.122;9.952;2023-05-29T04:18:24;101213.16;;;11.73;87.84
13705;BME280;6924;52.122;9.952;2023-05-29T04:20:50;101222.72;;;11.58;88.58
13705;BME280;6924;52.122;9.952;2023-05-29T04:23:18;101210.00;;;11.55;89.25
13705;BME280;6924;52.122;9.952;2023-05-29T04:25:45;101214.81;;;11.55;88.89
13705;BME280;6924;52.122;9.952;2023-05-29T04:28:11;101221.94;;;11.52;90.26
13705;BME280;6924;52.122;9.952;2023-05-29T04:30:37;101217.97;;;11.53;89.91
13705;BME280;6924;52.122;9.952;2023-05-29T04:33:04;101227.59;;;11.52;90.33
13705;BME280;6924;52.122;9.952;2023-05-29T04:35:32;101224.25;;;11.69;90.12
13705;BME280;6924;52.122;9.952;2023-05-29T04:37:58;101223.06;;;11.70;88.89
13705;BME280;6924;52.122;9.952;2023-05-29T04:40:25;101222.63;;;11.63;89.57
13705;BME280;6924;52.122;9.952;2023-05-29T04:42:51;101229.91;;;11.69;88.21
13705;BME280;6924;52.122;9.952;2023-05-29T04:45:19;101224.63;;;11.63;89.57
13705;BME280;6924;52.122;9.952;2023-05-29T04:47:46;101223.53;;;11.58;89.61
13705;BME280;6924;52.122;9.952;2023-05-29T04:50:13;101221.53;;;11.59;90.05
13705;BME280;6924;52.122;9.952;2023-05-29T04:52:40;101224.09;;;11.61;89.93
13705;BME280;6924;52.122;9.952;2023-05-29T04:55:07;101229.28;;;11.53;90.67
13705;BME280;6924;52.122;9.952;2023-05-29T04:57:34;101233.34;;;11.47;89.16
13705;BME280;6924;52.122;9.952;2023-05-29T05:00:00;101241.84;;;11.47;89.84
13705;BME280;6924;52.122;9.952;2023-05-29T05:02:30;101228.84;;;11.65;89.38
13705;BME280;6924;52.122;9.952;2023-05-29T05:04:57;101235.16;;;11.57;88.33
13705;BME280;6924;52.122;9.952;2023-05-29T05:07:23;101244.84;;;11.56;89.49
13705;BME280;6924;52.122;9.952;2023-05-29T05:09:51;101241.63;;;11.63;89.48
13705;BME280;6924;52.122;9.952;2023-05-29T05:12:18;101244.84;;;11.56;88.18
13705;BME280;6924;52.122;9.952;2023-05-29T05:14:44;101244.00;;;11.74;89.05
13705;BME280;6924;52.122;9.952;2023-05-29T05:17:10;101242.94;;;11.89;88.76
13705;BME280;6924;52.122;9.952;2023-05-29T05:19:37;101236.13;;;11.90;88.66
13705;BME280;6924;52.122;9.952;2023-05-29T05:22:04;101229.16;;;12.02;87.46
13705;BME280;6924;52.122;9.952;2023-05-29T05:24:30;101243.16;;;12.12;87.25
13705;BME280;6924;52.122;9.952;2023-05-29T05:26:58;101241.34;;;12.02;86.61
13705;BME280;6924;52.122;9.952;2023-05-29T05:29:25;101232.38;;;11.95;86.92
13705;BME280;6924;52.122;9.952;2023-05-29T05:31:51;101232.50;;;12.04;86.91
13705;BME280;6924;52.122;9.952;2023-05-29T05:34:18;101228.66;;;12.13;86.88
13705;BME280;6924;52.122;9.952;2023-05-29T05:36:44;101234.91;;;12.29;86.41
13705;BME280;6924;52.122;9.952;2023-05-29T05:39:11;101234.88;;;12.15;86.40
13705;BME280;6924;52.122;9.952;2023-05-29T05:41:37;101221.44;;;12.21;86.23
13705;BME280;6924;52.122;9.952;2023-05-29T05:44:05;101224.00;;;12.36;85.70
13705;BME280;6924;52.122;9.952;2023-05-29T05:46:31;101227.31;;;12.44;86.48
13705;BME280;6924;52.122;9.952;2023-05-29T05:48:58;101231.50;;;12.46;86.15
13705;BME280;6924;52.122;9.952;2023-05-29T05:51:26;101228.03;;;12.49;85.55
13705;BME280;6924;52.122;9.952;2023-05-29T05:53:52;101233.00;;;12.71;85.27
13705;BME280;6924;52.122;9.952;2023-05-29T05:56:19;101233.44;;;12.65;83.45
13705;BME280;6924;52.122;9.952;2023-05-29T05:58:45;101236.63;;;12.77;83.77
13705;BME280;6924;52.122;9.952;2023-05-29T06:01:14;101238.28;;;12.92;83.06
13705;BME280;6924;52.122;9.952;2023-05-29T06:03:41;101237.44;;;12.91;85.03
13705;BME280;6924;52.122;9.952;2023-05-29T06:06:07;101238.09;;;13.02;84.29
13705;BME280;6924;52.122;9.952;2023-05-29T06:08:34;101240.41;;;13.00;82.88
13705;BME280;6924;52.122;9.952;2023-05-29T06:11:00;101244.81;;;12.92;82.07
13705;BME280;6924;52.122;9.952;2023-05-29T06:13:27;101245.25;;;12.99;82.94
13705;BME280;6924;52.122;9.952;2023-05-29T06:15:53;101246.81;;;13.19;82.58
13705;BME280;6924;52.122;9.952;2023-05-29T06:18:21;101251.66;;;13.05;81.34
13705;BME280;6924;52.122;9.952;2023-05-29T06:20:48;101247.44;;;13.02;82.93
13705;BME280;6924;52.122;9.952;2023-05-29T06:23:15;101247.66;;;13.06;81.95
13705;BME280;6924;52.122;9.952;2023-05-29T06:25:42;101245.13;;;13.05;82.15
13705;BME280;6924;52.122;9.952;2023-05-29T06:28:09;101249.78;;;13.14;83.98
13705;BME280;6924;52.122;9.952;2023-05-29T06:30:35;101251.25;;;13.26;82.21
13705;BME280;6924;52.122;9.952;2023-05-29T06:33:01;101245.69;;;13.34;79.50
13705;BME280;6924;52.122;9.952;2023-05-29T06:35:29;101246.72;;;13.24;80.31
13705;BME280;6924;52.122;9.952;2023-05-29T06:37:56;101258.84;;;13.30;79.81
13705;BME280;6924;52.122;9.952;2023-05-29T06:40:22;101251.25;;;13.39;80.53
13705;BME280;6924;52.122;9.952;2023-05-29T06:42:48;101253.97;;;13.44;80.99
13705;BME280;6924;52.122;9.952;2023-05-29T06:45:15;101255.56;;;13.51;79.67
13705;BME280;6924;52.122;9.952;2023-05-29T06:47:42;101253.38;;;13.48;78.72
13705;BME280;6924;52.122;9.952;2023-05-29T06:50:09;101254.59;;;13.55;80.21
13705;BME280;6924;52.122;9.952;2023-05-29T06:52:37;101260.09;;;13.52;79.36
13705;BME280;6924;52.122;9.952;2023-05-29T06:55:05;101259.56;;;13.50;81.02
13705;BME280;6924;52.122;9.952;2023-05-29T06:57:31;101258.00;;;13.43;79.57
13705;BME280;6924;52.122;9.952;2023-05-29T06:59:58;101267.75;;;13.51;80.39
13705;BME280;6924;52.122;9.952;2023-05-29T07:02:24;101271.66;;;13.55;81.21
13705;BME280;6924;52.122;9.952;2023-05-29T07:04:51;101274.81;;;13.68;78.76
13705;BME280;6924;52.122;9.952;2023-05-29T07:07:17;101278.34;;;13.73;79.09
13705;BME280;6924;52.122;9.952;2023-05-29T07:09:45;101283.59;;;13.80;79.59
13705;BME280;6924;52.122;9.952;2023-05-29T07:12:11;101283.16;;;13.87;79.63
13705;BME280;6924;52.122;9.952;2023-05-29T07:14:38;101283.41;;;14.13;78.55
13705;BME280;6924;52.122;9.952;2023-05-29T07:17:04;101289.63;;;14.15;77.58
13705;BME280;6924;52.122;9.952;2023-05-29T07:19:31;101282.56;;;14.12;78.04
13705;BME280;6924;52.122;9.952;2023-05-29T07:21:59;101281.22;;;14.10;77.12
13705;BME280;6924;52.122;9.952;2023-05-29T07:24:25;101288.06;;;14.09;78.01
13705;BME280;6924;52.122;9.952;2023-05-29T07:26:53;101287.03;;;14.04;77.12
13705;BME280;6924;52.122;9.952;2023-05-29T07:29:20;101288.06;;;14.09;76.38
13705;BME280;6924;52.122;9.952;2023-05-29T07:31:48;101295.22;;;14.20;77.89
13705;BME280;6924;52.122;9.952;2023-05-29T07:34:14;101298.88;;;14.20;76.36
13705;BME280;6924;52.122;9.952;2023-05-29T07:36:56;101293.97;;;14.35;77.94
13705;BME280;6924;52.122;9.952;2023-05-29T07:39:23;101295.38;;;14.46;77.68
13705;BME280;6924;52.122;9.952;2023-05-29T07:41:50;101294.38;;;14.42;75.75
13705;BME280;6924;52.122;9.952;2023-05-29T07:44:18;101296.63;;;14.54;75.09
13705;BME280;6924;52.122;9.952;2023-05-29T07:46:45;101302.06;;;14.41;76.05
13705;BME280;6924;52.122;9.952;2023-05-29T07:49:11;101304.66;;;14.52;76.02
13705;BME280;6924;52.122;9.952;2023-05-29T07:51:38;101303.16;;;14.54;74.34
13705;BME280;6924;52.122;9.952;2023-05-29T07:54:05;101299.09;;;14.69;74.53
13705;BME280;6924;52.122;9.952;2023-05-29T07:56:31;101295.22;;;14.65;73.59
13705;BME280;6924;52.122;9.952;2023-05-29T07:58:58;101298.06;;;14.65;75.33
13705;BME280;6924;52.122;9.952;2023-05-29T08:01:26;101299.69;;;14.80;75.00
13705;BME280;6924;52.122;9.952;2023-05-29T08:03:53;101298.19;;;14.82;74.07
13705;BME280;6924;52.122;9.952;2023-05-29T08:06:20;101295.19;;;14.87;74.86
13705;BME280;6924;52.122;9.952;2023-05-29T08:08:47;101300.78;;;15.01;74.26
13705;BME280;6924;52.122;9.952;2023-05-29T08:11:13;101306.47;;;15.01;74.86
13705;BME280;6924;52.122;9.952;2023-05-29T08:13:40;101306.31;;;14.98;74.74
13705;BME280;6924;52.122;9.952;2023-05-29T08:16:06;101306.38;;;15.06;72.92
13705;BME280;6924;52.122;9.952;2023-05-29T08:18:34;101300.34;;;15.17;73.61
13705;BME280;6924;52.122;9.952;2023-05-29T08:21:01;101306.69;;;15.05;72.99
13705;BME280;6924;52.122;9.952;2023-05-29T08:23:28;101302.00;;;15.09;74.42
13705;BME280;6924;52.122;9.952;2023-05-29T08:25:56;101300.72;;;15.15;71.36
13705;BME280;6924;52.122;9.952;2023-05-29T08:28:22;101300.75;;;15.24;73.42
13705;BME280;6924;52.122;9.952;2023-05-29T08:30:51;101300.75;;;15.24;70.97
13705;BME280;6924;52.122;9.952;2023-05-29T08:33:17;101295.91;;;15.33;72.49
13705;BME280;6924;52.122;9.952;2023-05-29T08:35:45;101296.47;;;15.44;72.47
13705;BME280;6924;52.122;9.952;2023-05-29T08:38:12;101298.69;;;15.64;72.43
13705;BME280;6924;52.122;9.952;2023-05-29T08:40:39;101297.69;;;15.69;69.80
13705;BME280;6924;52.122;9.952;2023-05-29T08:43:10;101293.22;;;15.77;71.11
13705;BME280;6924;52.122;9.952;2023-05-29T08:45:41;101303.28;;;15.74;71.50
13705;BME280;6924;52.122;9.952;2023-05-29T08:48:09;101292.88;;;15.78;71.93
13705;BME280;6924;52.122;9.952;2023-05-29T08:50:37;101295.41;;;15.88;71.00
13705;BME280;6924;52.122;9.952;2023-05-29T08:53:10;101301.63;;;15.82;69.97
13705;BME280;6924;52.122;9.952;2023-05-29T08:55:39;101305.31;;;15.82;71.28
13705;BME280;6924;52.122;9.952;2023-05-29T08:58:07;101305.00;;;15.93;68.95
13705;BME280;6924;52.122;9.952;2023-05-29T09:00:35;101301.66;;;15.99;69.81
13705;BME280;6924;52.122;9.952;2023-05-29T09:03:02;101298.47;;;16.09;68.27
13705;BME280;6924;52.122;9.952;2023-05-29T09:05:29;101309.03;;;16.18;67.96
13705;BME280;6924;52.122;9.952;2023-05-29T09:07:55;101299.97;;;16.24;68.39
13705;BME280;6924;52.122;9.952;2023-05-29T09:10:24;101296.28;;;16.41;69.80
13705;BME280;6924;52.122;9.952;2023-05-29T09:12:51;101305.84;;;16.45;65.26
13705;BME280;6924;52.122;9.952;2023-05-29T09:15:23;101306.19;;;16.44;65.86
13705;BME280;6924;52.122;9.952;2023-05-29T09:17:56;101302.31;;;16.57;64.07
13705;BME280;6924;52.122;9.952;2023-05-29T09:20:24;101308.19;;;16.52;65.13
13705;BME280;6924;52.122;9.952;2023-05-29T09:22:55;101298.94;;;16.64;63.10
13705;BME280;6924;52.122;9.952;2023-05-29T09:25:26;101298.41;;;16.70;64.45
13705;BME280;6924;52.122;9.952;2023-05-29T09:27:55;101297.28;;;16.80;64.62
13705;BME280;6924;52.122;9.952;2023-05-29T09:30:33;101302.28;;;16.74;62.23
13705;BME280;6924;52.122;9.952;2023-05-29T09:33:03;101297.78;;;16.82;64.15
13705;BME280;6924;52.122;9.952;2023-05-29T09:35:35;101289.50;;;16.89;63.88
13705;BME280;6924;52.122;9.952;2023-05-29T09:38:04;101284.81;;;16.85;62.23
13705;BME280;6924;52.122;9.952;2023-05-29T09:40:35;101299.09;;;16.76;62.54
13705;BME280;6924;52.122;9.952;2023-05-29T09:43:03;101303.44;;;16.91;62.73
13705;BME280;6924;52.122;9.952;2023-05-29T09:45:33;101310.16;;;16.95;62.76
13705;BME280;6924;52.122;9.952;2023-05-29T09:47:59;101314.69;;;17.05;62.61
13705;BME280;6924;52.122;9.952;2023-05-29T09:50:26;101303.88;;;17.19;61.25
13705;BME280;6924;52.122;9.952;2023-05-29T09:52:53;101311.75;;;17.31;62.63
13705;BME280;6924;52.122;9.952;2023-05-29T09:55:20;101309.38;;;17.33;60.59
13705;BME280;6924;52.122;9.952;2023-05-29T09:57:48;101307.47;;;17.37;61.64
13705;BME280;6924;52.122;9.952;2023-05-29T10:00:15;101307.34;;;17.33;58.62
13705;BME280;6924;52.122;9.952;2023-05-29T10:02:43;101308.72;;;17.27;59.18
13705;BME280;6924;52.122;9.952;2023-05-29T10:05:10;101301.97;;;17.32;60.03
13705;BME280;6924;52.122;9.952;2023-05-29T10:07:43;101294.06;;;17.38;60.71
13705;BME280;6924;52.122;9.952;2023-05-29T10:10:12;101296.97;;;17.59;62.97
13705;BME280;6924;52.122;9.952;2023-05-29T10:12:42;101296.69;;;17.72;62.55
13705;BME280;6924;52.122;9.952;2023-05-29T10:15:13;101293.38;;;17.70;59.05
13705;BME280;6924;52.122;9.952;2023-05-29T10:17:44;101285.19;;;17.81;60.32
13705;BME280;6924;52.122;9.952;2023-05-29T10:20:15;101290.78;;;17.86;60.77
13705;BME280;6924;52.122;9.952;2023-05-29T10:22:45;101288.59;;;17.74;60.43
13705;BME280;6924;52.122;9.952;2023-05-29T10:25:13;101283.84;;;17.87;60.60
13705;BME280;6924;52.122;9.952;2023-05-29T10:27:41;101282.19;;;17.86;58.21
13705;BME280;6924;52.122;9.952;2023-05-29T10:30:14;101283.16;;;17.90;58.44
13705;BME280;6924;52.122;9.952;2023-05-29T10:32:52;101276.97;;;17.88;59.24
13705;BME280;6924;52.122;9.952;2023-05-29T10:35:25;101282.25;;;17.99;59.16
13705;BME280;6924;52.122;9.952;2023-05-29T10:37:57;101277.72;;;17.98;55.74
13705;BME280;6924;52.122;9.952;2023-05-29T10:40:28;101279.31;;;18.07;58.11
13705;BME280;6924;52.122;9.952;2023-05-29T10:42:54;101276.63;;;18.11;58.70
13705;BME280;6924;52.122;9.952;2023-05-29T10:45:49;101283.66;;;18.13;58.55
13705;BME280;6924;52.122;9.952;2023-05-29T10:48:36;101271.50;;;18.16;56.02
13705;BME280;6924;52.122;9.952;2023-05-29T10:51:05;101264.31;;;18.31;54.60
13705;BME280;6924;52.122;9.952;2023-05-29T10:53:32;101272.38;;;18.50;56.14
13705;BME280;6924;52.122;9.952;2023-05-29T10:55:59;101266.56;;;18.59;55.24
13705;BME280;6924;52.122;9.952;2023-05-29T10:58:26;101262.06;;;18.70;54.42
13705;BME280;6924;52.122;9.952;2023-05-29T11:00:54;101262.84;;;18.58;53.31
13705;BME280;6924;52.122;9.952;2023-05-29T11:03:24;101261.94;;;18.67;56.01
13705;BME280;6924;52.122;9.952;2023-05-29T11:05:59;101260.38;;;18.57;54.33
13705;BME280;6924;52.122;9.952;2023-05-29T11:08:32;101265.84;;;18.62;58.75
13705;BME280;6924;52.122;9.952;2023-05-29T11:10:59;101267.91;;;18.74;54.85
13705;BME280;6924;52.122;9.952;2023-05-29T11:13:27;101269.25;;;18.76;53.88
13705;BME280;6924;52.122;9.952;2023-05-29T11:16:11;101260.31;;;18.78;53.02
13705;BME280;6924;52.122;9.952;2023-05-29T11:18:40;101259.28;;;18.95;52.00
13705;BME280;6924;52.122;9.952;2023-05-29T11:21:15;101256.81;;;19.06;52.49
13705;BME280;6924;52.122;9.952;2023-05-29T11:23:47;101258.94;;;19.09;52.70
13705;BME280;6924;52.122;9.952;2023-05-29T11:26:16;101258.13;;;19.08;53.02
13705;BME280;6924;52.122;9.952;2023-05-29T11:28:43;101261.22;;;19.03;50.19
13705;BME280;6924;52.122;9.952;2023-05-29T11:31:13;101250.03;;;19.23;50.24
13705;BME280;6924;52.122;9.952;2023-05-29T11:33:40;101257.91;;;19.26;54.88
13705;BME280;6924;52.122;9.952;2023-05-29T11:36:08;101253.25;;;19.46;56.55
13705;BME280;6924;52.122;9.952;2023-05-29T11:38:36;101258.13;;;19.33;49.00
13705;BME280;6924;52.122;9.952;2023-05-29T11:41:02;101269.38;;;19.26;48.82
13705;BME280;6924;52.122;9.952;2023-05-29T11:43:29;101268.28;;;19.06;49.22
13705;BME280;6924;52.122;9.952;2023-05-29T11:45:55;101258.38;;;19.15;49.08
13705;BME280;6924;52.122;9.952;2023-05-29T11:48:23;101260.50;;;19.06;47.10
13705;BME280;6924;52.122;9.952;2023-05-29T11:50:50;101261.09;;;18.99;48.54
13705;BME280;6924;52.122;9.952;2023-05-29T11:53:16;101257.88;;;19.13;48.93
13705;BME280;6924;52.122;9.952;2023-05-29T11:55:43;101257.31;;;19.32;50.44
13705;BME280;6924;52.122;9.952;2023-05-29T11:58:09;101251.22;;;19.22;48.95
13705;BME280;6924;52.122;9.952;2023-05-29T12:00:37;101254.22;;;19.25;49.43
13705;BME280;6924;52.122;9.952;2023-05-29T12:03:05;101263.28;;;19.39;51.11
13705;BME280;6924;52.122;9.952;2023-05-29T12:05:45;101251.44;;;19.29;48.78
13705;BME280;6924;52.122;9.952;2023-05-29T12:08:12;101246.09;;;19.27;50.10
13705;BME280;6924;52.122;9.952;2023-05-29T12:10:46;101245.25;;;19.39;48.19
13705;BME280;6924;52.122;9.952;2023-05-29T12:13:12;101239.38;;;19.48;49.18
13705;BME280;6924;52.122;9.952;2023-05-29T12:15:40;101244.03;;;19.40;47.54
13705;BME280;6924;52.122;9.952;2023-05-29T12:18:06;101242.25;;;19.23;48.38
13705;BME280;6924;52.122;9.952;2023-05-29T12:20:35;101238.53;;;19.35;48.36
13705;BME280;6924;52.122;9.952;2023-05-29T12:23:02;101241.06;;;19.12;49.90
13705;BME280;6924;52.122;9.952;2023-05-29T12:25:28;101232.09;;;19.26;48.27
13705;BME280;6924;52.122;9.952;2023-05-29T12:27:56;101233.16;;;19.33;46.64
13705;BME280;6924;52.122;9.952;2023-05-29T12:30:23;101225.88;;;19.48;46.95
13705;BME280;6924;52.122;9.952;2023-05-29T12:32:51;101225.03;;;19.48;47.24
13705;BME280;6924;52.122;9.952;2023-05-29T12:35:19;101236.50;;;19.35;47.17
13705;BME280;6924;52.122;9.952;2023-05-29T12:37:48;101229.22;;;19.26;47.02
13705;BME280;6924;52.122;9.952;2023-05-29T12:40:16;101238.06;;;19.33;46.99
13705;BME280;6924;52.122;9.952;2023-05-29T12:42:45;101232.06;;;19.13;48.41
13705;BME280;6924;52.122;9.952;2023-05-29T12:45:11;101235.78;;;19.02;46.88
13705;BME280;6924;52.122;9.952;2023-05-29T12:47:44;101225.25;;;18.93;47.96
13705;BME280;6924;52.122;9.952;2023-05-29T12:50:21;101222.28;;;19.02;47.79
13705;BME280;6924;52.122;9.952;2023-05-29T12:52:57;101221.69;;;18.96;48.97
13705;BME280;6924;52.122;9.952;2023-05-29T12:55:24;101219.19;;;19.07;49.03
13705;BME280;6924;52.122;9.952;2023-05-29T12:57:51;101219.31;;;19.23;49.66
13705;BME280;6924;52.122;9.952;2023-05-29T13:00:19;101221.34;;;19.35;49.11
13705;BME280;6924;52.122;9.952;2023-05-29T13:02:46;101228.63;;;19.45;48.47
13705;BME280;6924;52.122;9.952;2023-05-29T13:05:12;101230.28;;;19.46;48.88